Terminal Aerodrome Forecast
Issued by NWS Charleston, SC

Home | Current Version | Previous Version | Text Only | Print | Product List | Glossary On
Versions: 1 2 3 4 5 6 7 8 9 10 11 12 13 14 15 16 17 18 19 20 21 22 23 24 25 26 27 28
363
FTUS42 KCHS 262320
TAFSAV
TAF
KSAV 262320Z 2700/2724 10004KT P6SM FEW020 SCT050 OVC070
     FM270700 00000KT P6SM SCT080
     FM271100 09004KT P6SM BKN050
     FM271500 13006KT P6SM VCSH BKN060 PROB30 2715/2721 4SM TSRA
      OVC025CB=

USA.gov is the U.S. government's official web portal to all federal, state and local government web resources and services.